Time;durP1;ratioP1;P1;durP2;ratioP2;P2;SDS_P1;SDS_P2;PMS_P1;PMS_P2;Temp;Humidity;BMP_temperature;BMP_pressure;BME280_temperature;BME280_humidity;BME280_pressure;Samples;Min_cycle;Max_cycle;Signal;HPM_P1;HPM_P2
2023/08/03 00:00:36;;;;;;;23.95;21.80;;;20.50;99.90;;;;;;4969431;28;20038;-65
2023/08/03 00:03:01;;;;;;;22.92;20.70;;;20.00;99.90;;;;;;4966858;28;20054;-66
2023/08/03 00:05:27;;;;;;;25.13;22.60;;;21.50;99.90;;;;;;4966724;28;20038;-66
2023/08/03 00:07:52;;;;;;;24.50;22.13;;;20.90;99.90;;;;;;4963852;28;20043;-65
2023/08/03 00:10:19;;;;;;;24.88;22.33;;;21.90;99.90;;;;;;4967014;28;20441;-66
2023/08/03 00:12:46;;;;;;;25.27;23.02;;;22.10;99.90;;;;;;4964652;28;20075;-65
2023/08/03 00:15:13;;;;;;;25.08;22.70;;;21.70;99.90;;;;;;4970958;28;20043;-65
2023/08/03 00:17:39;;;;;;;23.45;21.30;;;19.60;99.90;;;;;;4966294;28;20118;-65
2023/08/03 00:20:05;;;;;;;24.25;21.42;;;19.00;99.90;;;;;;4967505;28;20126;-65
2023/08/03 00:22:32;;;;;;;25.30;20.60;;;22.00;99.90;;;;;;4964242;28;20058;-66
2023/08/03 00:25:00;;;;;;;23.20;21.02;;;19.10;99.90;;;;;;4969834;28;20446;-64
2023/08/03 00:27:27;;;;;;;24.42;21.88;;;18.80;99.90;;;;;;4969102;28;20572;-67
2023/08/03 00:29:52;;;;;;;21.95;19.90;;;21.50;99.90;;;;;;4965843;28;20061;-65
2023/08/03 00:32:18;;;;;;;22.33;20.20;;;18.90;99.90;;;;;;4970385;28;20036;-65
2023/08/03 00:34:44;;;;;;;22.48;20.30;;;18.90;99.90;;;;;;4960295;28;20157;-64
2023/08/03 00:37:10;;;;;;;22.27;20.10;;;21.20;99.90;;;;;;4966959;28;20571;-65
2023/08/03 00:39:36;;;;;;;23.50;19.90;;;21.80;99.90;;;;;;4963086;28;20054;-66
2023/08/03 00:42:02;;;;;;;23.00;20.90;;;19.20;99.90;;;;;;4969008;28;20049;-65
2023/08/03 00:44:28;;;;;;;21.27;19.15;;;22.00;99.90;;;;;;4969414;28;20083;-65
2023/08/03 00:46:54;;;;;;;20.83;18.63;;;19.20;99.90;;;;;;4967297;28;20513;-66
2023/08/03 00:49:19;;;;;;;19.55;17.52;;;20.90;99.90;;;;;;4968670;28;20409;-65
2023/08/03 00:51:45;;;;;;;20.50;18.50;;;19.70;99.90;;;;;;4966512;28;20122;-67
2023/08/03 00:54:11;;;;;;;21.00;17.75;;;21.80;99.90;;;;;;4960745;28;20097;-66
2023/08/03 00:56:36;;;;;;;21.30;19.15;;;20.10;99.90;;;;;;4983624;28;20043;-65
2023/08/03 00:59:10;;;;;;;21.33;19.25;;;20.30;99.90;;;;;;4967200;28;20136;-65
2023/08/03 01:01:36;;;;;;;22.20;19.92;;;20.60;99.90;;;;;;4966022;28;20125;-66
2023/08/03 01:04:02;;;;;;;22.23;19.55;;;19.30;99.90;;;;;;4962035;28;20169;-66
2023/08/03 01:06:27;;;;;;;21.63;18.45;;;21.90;99.90;;;;;;4967233;28;20496;-69
2023/08/03 01:08:54;;;;;;;21.20;19.10;;;19.20;99.90;;;;;;4965117;28;20054;-69
2023/08/03 01:11:20;;;;;;;21.02;19.13;;;21.40;99.90;;;;;;4954438;28;20149;-69
2023/08/03 01:13:46;;;;;;;21.40;18.85;;;20.40;99.90;;;;;;4963952;28;20138;-70
2023/08/03 01:16:12;;;;;;;21.15;19.08;;;22.20;99.90;;;;;;4966551;28;20039;-69
2023/08/03 01:18:41;;;;;;;23.15;20.92;;;19.40;99.90;;;;;;4961250;28;20039;-70
2023/08/03 01:21:08;;;;;;;22.58;20.33;;;19.50;99.90;;;;;;4953328;28;20089;-70
2023/08/03 01:23:34;;;;;;;21.13;19.17;;;21.10;99.90;;;;;;4965819;28;20070;-69
2023/08/03 01:25:59;;;;;;;22.83;20.52;;;22.30;99.90;;;;;;4961517;28;20071;-70
2023/08/03 01:28:25;;;;;;;21.65;19.65;;;21.80;99.90;;;;;;4967250;28;20595;-70
2023/08/03 01:30:50;;;;;;;21.73;19.77;;;22.40;99.90;;;;;;4966040;28;20081;-70
2023/08/03 01:33:16;;;;;;;22.08;19.95;;;19.70;99.90;;;;;;4965613;28;20050;-70
2023/08/03 01:35:42;;;;;;;21.40;19.50;;;22.30;99.90;;;;;;4966307;28;20034;-70
2023/08/03 01:38:07;;;;;;;21.42;19.13;;;22.30;99.90;;;;;;4969287;28;20046;-70
2023/08/03 01:40:33;;;;;;;21.90;19.80;;;22.20;99.90;;;;;;4964996;28;20038;-70
2023/08/03 01:42:58;;;;;;;21.05;19.17;;;19.80;99.90;;;;;;4959312;28;20035;-70
2023/08/03 01:45:24;;;;;;;21.75;19.17;;;19.70;99.90;;;;;;4968607;28;20057;-70
2023/08/03 01:47:50;;;;;;;24.50;18.27;;;21.60;99.90;;;;;;4965000;28;20043;-69
2023/08/03 01:50:15;;;;;;;20.60;18.17;;;22.10;99.90;;;;;;4960070;28;20070;-70
2023/08/03 01:52:41;;;;;;;26.17;18.48;;;22.30;99.90;;;;;;4961404;28;20074;-70
2023/08/03 01:55:07;;;;;;;26.98;19.38;;;19.40;99.90;;;;;;4964936;28;20413;-70
2023/08/03 01:57:32;;;;;;;22.63;19.88;;;21.60;99.90;;;;;;4964268;28;20398;-70
2023/08/03 01:59:58;;;;;;;27.88;17.70;;;19.00;99.90;;;;;;4965350;28;20043;-70
2023/08/03 02:02:23;;;;;;;33.28;19.42;;;19.10;99.90;;;;;;4967834;28;20078;-70
2023/08/03 02:04:49;;;;;;;29.35;20.85;;;19.10;99.90;;;;;;4960176;28;20548;-70
2023/08/03 02:07:16;;;;;;;24.50;19.17;;;22.30;99.90;;;;;;4959069;28;20918;-70
2023/08/03 02:09:42;;;;;;;26.67;18.35;;;22.50;99.90;;;;;;4964585;28;20149;-70
2023/08/03 02:12:08;;;;;;;28.95;18.25;;;19.40;99.90;;;;;;4957038;28;20121;-70
2023/08/03 02:14:33;;;;;;;31.88;18.25;;;20.70;99.90;;;;;;4948155;28;20045;-69
2023/08/03 02:16:59;;;;;;;27.25;20.13;;;22.40;99.90;;;;;;4959638;28;20433;-67
2023/08/03 02:19:25;;;;;;;27.30;16.17;;;19.20;99.90;;;;;;4960019;28;20438;-67
2023/08/03 02:21:50;;;;;;;29.92;19.48;;;19.00;99.90;;;;;;4957850;28;20039;-68
2023/08/03 02:24:16;;;;;;;23.63;20.80;;;19.10;99.90;;;;;;4960889;28;21345;-67
2023/08/03 02:26:41;;;;;;;27.90;19.48;;;19.20;99.90;;;;;;4961406;28;20046;-67
2023/08/03 02:29:07;;;;;;;23.88;17.98;;;19.20;99.90;;;;;;4962795;28;20268;-66
2023/08/03 02:31:33;;;;;;;22.40;19.60;;;22.00;99.90;;;;;;4964882;28;20113;-67
2023/08/03 02:33:58;;;;;;;21.27;18.67;;;20.40;99.90;;;;;;4961362;28;20043;-66
2023/08/03 02:36:24;;;;;;;20.80;18.63;;;20.90;99.90;;;;;;4963670;28;20046;-66
2023/08/03 02:38:49;;;;;;;29.05;17.15;;;22.60;99.90;;;;;;4969194;28;20050;-64
2023/08/03 02:41:15;;;;;;;20.17;18.13;;;22.70;99.90;;;;;;4963764;28;20121;-65
2023/08/03 02:43:41;;;;;;;21.95;16.77;;;19.00;99.90;;;;;;4963925;28;20038;-66
2023/08/03 02:46:06;;;;;;;22.55;17.55;;;19.40;99.90;;;;;;4959380;28;20050;-66
2023/08/03 02:48:32;;;;;;;21.63;19.27;;;20.30;99.90;;;;;;4966514;28;20051;-67
2023/08/03 02:50:58;;;;;;;18.42;16.27;;;22.80;99.90;;;;;;4963487;28;20038;-65
2023/08/03 02:53:23;;;;;;;17.80;16.05;;;22.00;99.90;;;;;;4967301;28;20413;-67
2023/08/03 02:55:50;;;;;;;19.70;17.50;;;19.00;99.90;;;;;;4968822;28;20093;-65
2023/08/03 02:58:16;;;;;;;21.05;18.88;;;22.40;99.90;;;;;;4960993;28;20043;-67
2023/08/03 03:00:41;;;;;;;22.58;19.55;;;19.60;99.90;;;;;;4966607;28;20572;-67
2023/08/03 03:03:07;;;;;;;22.50;20.00;;;18.40;99.90;;;;;;4966492;28;20039;-66
2023/08/03 03:05:33;;;;;;;21.08;18.85;;;19.20;99.90;;;;;;4962928;28;20035;-65
2023/08/03 03:07:58;;;;;;;22.45;20.02;;;22.00;99.90;;;;;;4965210;28;20046;-66
2023/08/03 03:10:24;;;;;;;23.17;20.70;;;21.40;99.90;;;;;;4968655;28;20106;-65
2023/08/03 03:12:49;;;;;;;23.55;20.48;;;19.40;99.90;;;;;;4968466;28;20389;-65
2023/08/03 03:15:15;;;;;;;23.35;20.95;;;17.90;99.90;;;;;;4964826;28;20043;-66
2023/08/03 03:17:42;;;;;;;25.88;21.50;;;21.70;99.90;;;;;;4972453;28;20057;-66
2023/08/03 03:20:08;;;;;;;24.40;22.02;;;18.20;99.90;;;;;;4968353;28;20082;-64
2023/08/03 03:22:35;;;;;;;26.45;23.30;;;19.00;99.90;;;;;;4970403;28;20085;-65
2023/08/03 03:25:02;;;;;;;27.30;24.35;;;22.70;99.90;;;;;;4964597;28;20039;-67
2023/08/03 03:27:28;;;;;;;27.33;24.58;;;22.70;99.90;;;;;;4969600;28;20045;-72
2023/08/03 03:29:53;;;;;;;29.35;25.90;;;20.60;99.90;;;;;;4963067;28;20038;-71
2023/08/03 03:32:19;;;;;;;28.48;25.67;;;22.70;99.90;;;;;;4970675;28;20497;-71
2023/08/03 03:34:45;;;;;;;35.17;26.38;;;22.90;99.90;;;;;;4970967;28;20117;-71
2023/08/03 03:37:10;;;;;;;37.05;26.55;;;20.30;99.90;;;;;;4966856;28;20105;-71
2023/08/03 03:39:36;;;;;;;30.00;25.30;;;21.60;99.90;;;;;;4964814;28;20042;-71
2023/08/03 03:42:01;;;;;;;30.15;23.63;;;21.30;99.90;;;;;;4968173;28;20515;-71
2023/08/03 03:44:27;;;;;;;28.40;25.60;;;19.90;99.90;;;;;;4966730;28;20509;-71
2023/08/03 03:46:52;;;;;;;26.17;23.35;;;19.00;99.90;;;;;;4970868;28;20121;-71
2023/08/03 03:49:18;;;;;;;27.88;25.13;;;21.20;99.90;;;;;;4964369;28;20070;-71
2023/08/03 03:51:43;;;;;;;28.17;24.73;;;18.60;99.90;;;;;;4971488;28;20161;-71
2023/08/03 03:54:09;;;;;;;27.98;25.00;;;21.70;99.90;;;;;;4962937;28;20465;-71
2023/08/03 03:56:35;;;;;;;28.50;25.58;;;21.30;99.90;;;;;;4958543;28;20130;-70
2023/08/03 03:59:00;;;;;;;28.17;25.17;;;20.00;99.90;;;;;;4963215;28;20042;-70
2023/08/03 04:01:26;;;;;;;29.20;26.25;;;20.10;99.90;;;;;;4966157;28;20048;-70
2023/08/03 04:03:52;;;;;;;29.02;26.00;;;18.20;99.90;;;;;;4962570;28;20091;-70
2023/08/03 04:06:17;;;;;;;28.85;26.13;;;21.80;99.90;;;;;;4963516;28;20093;-70
2023/08/03 04:08:43;;;;;;;30.40;27.48;;;22.10;99.90;;;;;;4963642;28;20056;-71
2023/08/03 04:11:08;;;;;;;31.65;28.45;;;18.00;99.90;;;;;;4964872;28;20116;-70
2023/08/03 04:13:34;;;;;;;28.95;26.10;;;22.50;99.90;;;;;;4961680;28;20051;-70
2023/08/03 04:15:59;;;;;;;30.45;27.52;;;18.20;99.90;;;;;;4972309;28;20405;-70
2023/08/03 04:18:27;;;;;;;30.00;26.85;;;21.60;99.90;;;;;;4964409;28;20043;-71
2023/08/03 04:20:53;;;;;;;29.60;26.23;;;18.30;99.90;;;;;;4962488;28;20047;-68
2023/08/03 04:23:19;;;;;;;28.85;25.77;;;22.40;99.90;;;;;;4957882;28;20105;-70
2023/08/03 04:25:44;;;;;;;27.27;24.45;;;22.60;99.90;;;;;;4961582;28;20050;-70
2023/08/03 04:28:10;;;;;;;29.35;25.10;;;18.10;99.90;;;;;;4962730;28;20035;-69
2023/08/03 04:30:35;;;;;;;28.20;25.35;;;19.30;99.90;;;;;;4964427;28;20441;-70
2023/08/03 04:33:01;;;;;;;27.88;25.15;;;19.00;99.90;;;;;;4963902;28;20390;-69
2023/08/03 04:35:27;;;;;;;28.90;25.13;;;18.90;99.90;;;;;;4964506;28;20074;-70
2023/08/03 04:37:52;;;;;;;26.25;23.55;;;22.80;99.90;;;;;;4963442;28;20412;-65
2023/08/03 04:40:18;;;;;;;27.50;24.58;;;20.90;99.90;;;;;;4964991;28;20050;-64
2023/08/03 04:42:43;;;;;;;26.45;23.98;;;21.70;99.90;;;;;;4971223;28;20493;-66
2023/08/03 04:45:09;;;;;;;27.45;24.77;;;22.10;99.90;;;;;;4963849;28;20070;-65
2023/08/03 04:47:34;;;;;;;28.65;25.75;;;22.40;99.90;;;;;;4968007;28;20034;-65
2023/08/03 04:50:00;;;;;;;29.10;26.50;;;18.90;99.90;;;;;;4968719;28;20073;-69
2023/08/03 04:52:26;;;;;;;29.05;25.33;;;22.20;99.90;;;;;;4965860;28;20047;-66
2023/08/03 04:54:51;;;;;;;27.20;24.25;;;19.90;99.90;;;;;;4964645;28;20098;-66
2023/08/03 04:57:17;;;;;;;28.13;25.55;;;19.40;99.90;;;;;;4982104;28;20050;-65
2023/08/03 04:59:42;;;;;;;28.35;25.80;;;18.90;99.90;;;;;;4962116;28;20408;-64
2023/08/03 05:02:08;;;;;;;27.88;25.55;;;18.90;99.90;;;;;;4969961;28;20030;-66
2023/08/03 05:04:33;;;;;;;28.55;26.00;;;20.20;99.90;;;;;;4969356;28;20042;-65
2023/08/03 05:06:59;;;;;;;26.80;24.35;;;21.60;99.90;;;;;;4967139;28;21481;-65
2023/08/03 05:09:25;;;;;;;29.67;26.95;;;23.10;99.90;;;;;;4963613;28;20069;-65
2023/08/03 05:11:51;;;;;;;28.42;25.80;;;23.10;99.90;;;;;;4963553;28;20046;-65
2023/08/03 05:14:17;;;;;;;30.10;27.55;;;19.00;99.90;;;;;;4964109;28;20062;-65
2023/08/03 05:16:42;;;;;;;31.10;28.17;;;22.50;99.90;;;;;;4968158;28;20051;-66
2023/08/03 05:19:08;;;;;;;29.75;26.70;;;23.00;99.90;;;;;;4966509;28;20054;-67
2023/08/03 05:21:33;;;;;;;31.42;28.17;;;19.80;99.90;;;;;;4966214;28;20043;-65
2023/08/03 05:23:59;;;;;;;28.98;26.05;;;19.60;99.90;;;;;;4967118;28;20066;-67
2023/08/03 05:26:26;;;;;;;28.70;26.00;;;21.90;99.90;;;;;;4967186;28;20386;-65
2023/08/03 05:28:51;;;;;;;30.38;27.65;;;19.50;99.90;;;;;;4966151;28;20559;-65
2023/08/03 05:31:17;;;;;;;28.80;26.20;;;20.50;99.90;;;;;;4968471;28;20142;-66
2023/08/03 05:33:43;;;;;;;30.77;27.77;;;22.20;99.90;;;;;;4967411;28;20433;-66
2023/08/03 05:36:08;;;;;;;31.92;28.90;;;19.10;99.90;;;;;;4964830;28;20034;-65
2023/08/03 05:38:34;;;;;;;31.95;29.00;;;19.40;99.90;;;;;;4963408;28;20057;-65
2023/08/03 05:41:00;;;;;;;31.38;28.38;;;19.00;99.90;;;;;;4963745;28;20038;-65
2023/08/03 05:43:27;;;;;;;29.77;27.20;;;20.70;99.90;;;;;;4967532;28;20042;-65
2023/08/03 05:46:02;;;;;;;28.88;26.38;;;19.80;99.90;;;;;;4966657;28;20142;-66
2023/08/03 05:48:30;;;;;;;30.08;27.65;;;23.00;99.90;;;;;;4967303;28;20035;-68
2023/08/03 05:50:57;;;;;;;30.23;27.27;;;20.60;99.90;;;;;;4968570;28;20081;-66
2023/08/03 05:53:23;;;;;;;31.77;29.02;;;19.60;99.90;;;;;;4978754;28;20085;-66
2023/08/03 05:55:49;;;;;;;33.55;30.40;;;23.40;99.90;;;;;;4966181;28;20449;-66
2023/08/03 05:58:17;;;;;;;32.88;29.85;;;20.70;99.90;;;;;;4969275;28;20039;-66
2023/08/03 06:00:47;;;;;;;33.45;30.40;;;19.30;99.90;;;;;;4968071;28;20118;-66
2023/08/03 06:03:14;;;;;;;31.77;28.85;;;22.40;99.90;;;;;;4962461;28;20050;-66
2023/08/03 06:05:45;;;;;;;31.25;28.40;;;23.90;99.90;;;;;;4981444;28;20465;-66
2023/08/03 06:08:21;;;;;;;31.77;28.88;;;21.20;99.90;;;;;;4963990;28;20101;-66
2023/08/03 06:10:49;;;;;;;34.25;31.05;;;22.30;99.90;;;;;;4967384;28;20042;-67
2023/08/03 06:13:17;;;;;;;33.92;30.63;;;23.90;99.90;;;;;;4963670;28;20098;-67
2023/08/03 06:15:45;;;;;;;33.45;30.40;;;21.70;99.90;;;;;;4965249;28;20045;-67
2023/08/03 06:18:14;;;;;;;33.95;30.67;;;21.50;99.90;;;;;;4963250;28;20039;-67
2023/08/03 06:20:51;;;;;;;33.05;30.15;;;23.00;99.90;;;;;;4964387;28;20047;-66
2023/08/03 06:23:19;;;;;;;33.38;30.17;;;22.10;99.90;;;;;;4962308;28;20051;-69
2023/08/03 06:25:49;;;;;;;34.58;31.30;;;23.70;99.90;;;;;;4962098;28;20082;-66
2023/08/03 06:28:17;;;;;;;34.80;31.55;;;19.70;99.90;;;;;;4962772;28;20217;-66
2023/08/03 06:30:44;;;;;;;36.05;32.47;;;19.80;99.90;;;;;;4967170;28;20039;-66
2023/08/03 06:33:12;;;;;;;35.10;31.70;;;22.80;99.90;;;;;;4965565;28;20101;-66
2023/08/03 06:35:40;;;;;;;35.67;32.13;;;22.80;99.90;;;;;;4963174;28;20111;-68
2023/08/03 06:38:09;;;;;;;35.25;31.75;;;23.40;99.90;;;;;;4964549;28;20051;-66
2023/08/03 06:40:35;;;;;;;37.67;33.78;;;21.40;99.90;;;;;;4965774;28;20417;-66
2023/08/03 06:43:02;;;;;;;40.25;36.22;;;20.60;99.90;;;;;;4962875;28;20047;-66
2023/08/03 06:45:31;;;;;;;40.30;35.65;;;21.00;99.90;;;;;;4963176;28;20070;-66
2023/08/03 06:48:01;;;;;;;39.75;35.53;;;21.50;99.90;;;;;;4965476;28;20130;-65
2023/08/03 06:50:29;;;;;;;38.00;34.13;;;22.60;99.90;;;;;;4964195;28;20047;-66
2023/08/03 06:52:55;;;;;;;35.50;31.67;;;21.70;99.90;;;;;;4979461;28;20065;-66
2023/08/03 06:55:20;;;;;;;40.65;36.22;;;22.30;99.90;;;;;;4957897;28;20405;-66
2023/08/03 06:57:46;;;;;;;41.17;36.67;;;22.50;99.90;;;;;;4964114;28;20038;-65
2023/08/03 07:00:12;;;;;;;35.50;31.65;;;22.70;99.90;;;;;;4963889;28;20170;-67
2023/08/03 07:02:38;;;;;;;43.38;34.30;;;22.10;99.90;;;;;;4963945;28;20031;-64
2023/08/03 07:05:04;;;;;;;39.00;34.63;;;21.80;99.90;;;;;;4962810;28;20108;-65
2023/08/03 07:07:30;;;;;;;41.22;35.30;;;22.20;99.90;;;;;;4963715;28;20062;-66
2023/08/03 07:09:56;;;;;;;43.38;35.08;;;21.60;99.90;;;;;;4960374;28;20058;-65
2023/08/03 07:12:22;;;;;;;39.92;34.97;;;21.70;99.90;;;;;;4962068;28;20499;-65
2023/08/03 07:14:47;;;;;;;40.70;36.22;;;21.50;99.90;;;;;;4962768;28;20041;-64
2023/08/03 07:17:13;;;;;;;39.95;35.05;;;21.90;99.90;;;;;;4961775;28;20512;-64
2023/08/03 07:19:40;;;;;;;35.92;32.17;;;22.30;99.90;;;;;;4961667;28;20432;-63
2023/08/03 07:22:06;;;;;;;38.85;34.78;;;22.20;99.90;;;;;;4960998;28;20043;-64
2023/08/03 07:24:32;;;;;;;41.58;36.05;;;22.20;99.90;;;;;;4959173;28;20039;-65
2023/08/03 07:27:00;;;;;;;40.55;36.38;;;22.80;99.90;;;;;;4960759;28;20046;-65
2023/08/03 07:29:27;;;;;;;45.67;37.17;;;22.70;99.90;;;;;;4959141;28;20043;-66
2023/08/03 07:31:52;;;;;;;43.05;34.08;;;23.30;99.90;;;;;;4963363;28;20591;-64
2023/08/03 07:34:18;;;;;;;34.55;30.00;;;23.40;99.90;;;;;;4962404;28;20090;-65
2023/08/03 07:36:45;;;;;;;36.42;31.20;;;23.20;99.90;;;;;;4959738;28;20101;-65
2023/08/03 07:39:10;;;;;;;31.45;28.25;;;23.20;99.90;;;;;;4965118;28;20503;-64
2023/08/03 07:41:36;;;;;;;34.33;29.95;;;23.50;99.90;;;;;;4963353;28;20074;-64
2023/08/03 07:44:02;;;;;;;30.17;27.00;;;23.60;99.90;;;;;;4960945;28;20038;-65
2023/08/03 07:46:29;;;;;;;28.17;24.52;;;23.60;99.90;;;;;;4960364;28;20061;-65
2023/08/03 07:48:56;;;;;;;33.05;29.60;;;23.60;99.90;;;;;;4963178;28;20043;-64
2023/08/03 07:51:21;;;;;;;29.38;25.65;;;23.70;99.90;;;;;;4960642;28;20054;-66
2023/08/03 07:53:47;;;;;;;29.23;26.08;;;23.80;99.90;;;;;;4961053;28;20043;-64
2023/08/03 07:56:21;;;;;;;32.45;26.90;;;23.80;99.90;;;;;;4960057;28;20108;-66
2023/08/03 07:58:48;;;;;;;31.35;28.17;;;23.60;99.90;;;;;;4964424;28;20035;-65
2023/08/03 08:01:14;;;;;;;34.42;28.52;;;23.70;99.90;;;;;;4963622;28;20038;-64
2023/08/03 08:03:41;;;;;;;31.38;27.80;;;24.00;99.90;;;;;;4965375;28;20042;-64
2023/08/03 08:06:08;;;;;;;32.67;28.00;;;24.30;99.90;;;;;;4960709;28;20070;-66
2023/08/03 08:08:34;;;;;;;34.20;27.00;;;23.80;99.90;;;;;;4964574;28;20074;-63
2023/08/03 08:11:00;;;;;;;33.45;29.95;;;23.90;99.90;;;;;;4965456;28;20074;-65
2023/08/03 08:13:25;;;;;;;29.85;24.95;;;24.40;99.90;;;;;;4968018;28;20137;-64
2023/08/03 08:15:51;;;;;;;34.83;28.08;;;24.40;99.90;;;;;;4963871;28;20101;-64
2023/08/03 08:18:16;;;;;;;33.15;29.50;;;24.10;99.90;;;;;;4965433;28;20039;-65
2023/08/03 08:20:44;;;;;;;34.55;29.52;;;23.90;99.90;;;;;;4966839;28;20558;-65
2023/08/03 08:23:10;;;;;;;31.08;27.55;;;23.80;99.90;;;;;;4965513;28;20031;-64
2023/08/03 08:25:37;;;;;;;31.65;27.50;;;23.70;99.90;;;;;;4960307;28;20031;-65
2023/08/03 08:28:03;;;;;;;28.10;25.40;;;23.30;99.90;;;;;;4968747;28;20047;-64
2023/08/03 08:30:29;;;;;;;29.20;26.13;;;23.80;99.90;;;;;;4963398;28;20053;-64
2023/08/03 08:32:54;;;;;;;27.60;25.00;;;23.70;99.90;;;;;;4965257;28;20042;-63
2023/08/03 08:35:21;;;;;;;28.42;25.67;;;23.80;99.90;;;;;;4962043;28;20137;-64
2023/08/03 08:37:47;;;;;;;26.65;23.88;;;23.40;99.90;;;;;;4968752;28;20076;-64
2023/08/03 08:40:12;;;;;;;28.42;25.63;;;23.10;99.90;;;;;;4965088;28;20821;-64
2023/08/03 08:42:38;;;;;;;25.80;23.30;;;23.40;99.90;;;;;;4965067;28;20034;-65
2023/08/03 08:45:05;;;;;;;25.27;22.90;;;23.50;99.90;;;;;;4965353;28;20121;-63
2023/08/03 08:47:31;;;;;;;27.85;25.25;;;23.70;99.90;;;;;;4967982;28;20035;-64
2023/08/03 08:49:56;;;;;;;24.38;21.88;;;23.90;99.90;;;;;;4968351;28;20077;-66
2023/08/03 08:52:25;;;;;;;26.48;24.00;;;23.90;99.90;;;;;;4968744;28;20135;-64
2023/08/03 08:55:09;;;;;;;24.55;22.10;;;24.00;55.40;;;;;;4966072;28;20121;-65
2023/08/03 08:57:34;;;;;;;27.73;24.75;;;24.20;99.90;;;;;;4970442;28;20428;-63
2023/08/03 09:00:05;;;;;;;22.20;20.13;;;24.30;99.90;;;;;;4965308;28;20039;-64
2023/08/03 09:02:31;;;;;;;24.55;21.98;;;24.30;99.90;;;;;;4965773;28;20061;-64
2023/08/03 09:04:56;;;;;;;27.92;25.27;;;23.90;1.00;;;;;;4962242;28;20038;-63
2023/08/03 09:07:22;;;;;;;29.95;26.95;;;24.20;1.00;;;;;;4965098;28;20043;-64
2023/08/03 09:09:48;;;;;;;27.77;24.83;;;23.90;1.00;;;;;;4964735;28;20128;-70
2023/08/03 09:12:25;;;;;;;28.25;25.20;;;23.70;11.90;;;;;;4963152;28;20177;-70
2023/08/03 09:14:51;;;;;;;33.47;30.00;;;23.60;99.90;;;;;;4964353;28;20043;-71
2023/08/03 09:17:18;;;;;;;37.97;30.95;;;23.80;1.00;;;;;;4960305;28;20098;-66
2023/08/03 09:19:47;;;;;;;35.97;31.60;;;23.90;99.90;;;;;;4963413;28;20113;-66
2023/08/03 09:22:12;;;;;;;41.53;30.90;;;23.60;99.90;;;;;;4968237;28;20074;-66
2023/08/03 09:24:38;;;;;;;41.92;31.85;;;23.50;99.90;;;;;;4962612;28;20125;-66
2023/08/03 09:27:04;;;;;;;44.83;32.60;;;23.40;99.90;;;;;;4963151;28;20035;-66
2023/08/03 09:29:31;;;;;;;38.22;31.55;;;23.60;1.00;;;;;;4970045;28;20038;-65
2023/08/03 09:32:04;;;;;;;36.47;29.95;;;23.30;1.00;;;;;;4966406;28;20072;-65
2023/08/03 09:34:38;;;;;;;40.08;33.92;;;23.30;1.00;;;;;;4963592;28;20046;-66
2023/08/03 09:37:04;;;;;;;45.38;35.75;;;23.20;1.00;;;;;;4963574;28;20050;-65
2023/08/03 09:39:34;;;;;;;45.90;36.05;;;23.40;99.90;;;;;;4965822;28;20516;-66
2023/08/03 09:42:03;;;;;;;38.25;34.20;;;23.20;63.70;;;;;;4965902;28;20058;-65
2023/08/03 09:44:33;;;;;;;42.75;35.85;;;23.00;69.60;;;;;;4965636;28;20043;-65
2023/08/03 09:47:03;;;;;;;43.47;36.00;;;23.00;99.90;;;;;;4969509;28;20045;-65
2023/08/03 09:49:30;;;;;;;40.65;35.20;;;23.00;99.90;;;;;;4963918;28;20051;-65
2023/08/03 09:51:57;;;;;;;39.40;35.20;;;23.00;99.90;;;;;;4966752;28;20074;-66
2023/08/03 09:55:00;;;;;;;41.50;37.00;;;23.00;99.90;;;;;;4964659;28;20057;-65
2023/08/03 09:57:59;;;;;;;45.20;38.30;;;22.90;99.90;;;;;;4894768;29;20087;-65
2023/08/03 10:00:25;;;;;;;42.15;37.78;;;22.90;99.90;;;;;;4958652;28;20055;-65
2023/08/03 10:03:12;;;;;;;41.00;36.97;;;22.80;99.90;;;;;;4965047;28;20034;-66
2023/08/03 10:05:50;;;;;;;45.33;40.42;;;22.80;99.90;;;;;;4960806;28;20047;-65
2023/08/03 10:08:41;;;;;;;42.05;37.75;;;22.80;99.90;;;;;;4966243;28;20114;-66
2023/08/03 10:11:10;;;;;;;45.17;40.45;;;23.00;99.90;;;;;;4961014;28;20105;-65
2023/08/03 10:13:41;;;;;;;39.20;35.13;;;23.20;99.90;;;;;;4965143;28;20043;-65
2023/08/03 10:16:07;;;;;;;39.45;34.95;;;23.30;99.90;;;;;;4960369;28;20039;-66
2023/08/03 10:18:35;;;;;;;39.10;35.03;;;23.40;99.90;;;;;;4965197;28;20070;-66
2023/08/03 10:21:02;;;;;;;34.80;31.13;;;23.50;99.90;;;;;;4965818;28;20038;-66
2023/08/03 10:23:28;;;;;;;34.53;30.85;;;23.50;99.90;;;;;;4965988;28;20046;-65
2023/08/03 10:25:57;;;;;;;39.22;35.10;;;23.70;99.90;;;;;;4961306;28;20046;-65
2023/08/03 10:28:43;;;;;;;45.63;36.30;;;23.40;99.90;;;;;;4971796;28;20061;-63
2023/08/03 10:31:18;;;;;;;44.05;39.13;;;23.30;99.90;;;;;;4962829;28;20461;-63
2023/08/03 10:33:48;;;;;;;48.75;38.88;;;23.20;99.90;;;;;;4962896;28;20321;-66
2023/08/03 10:36:29;;;;;;;51.15;41.22;;;23.30;99.90;;;;;;4964705;28;20101;-67
2023/08/03 10:39:11;;;;;;;48.45;38.25;;;23.20;99.90;;;;;;4957724;28;20058;-63
2023/08/03 10:41:45;;;;;;;44.38;35.85;;;23.30;99.90;;;;;;4964930;28;20492;-63
2023/08/03 10:44:14;;;;;;;50.13;35.83;;;23.40;99.90;;;;;;4963240;28;20033;-62
2023/08/03 10:46:42;;;;;;;46.40;36.53;;;23.30;99.90;;;;;;4962209;28;20042;-63
2023/08/03 10:49:22;;;;;;;44.95;36.33;;;23.30;99.90;;;;;;4964969;28;20038;-63
2023/08/03 10:52:17;;;;;;;43.72;35.47;;;23.10;99.90;;;;;;4966412;28;20080;-63
2023/08/03 10:54:43;;;;;;;40.47;35.35;;;23.00;99.90;;;;;;4961511;28;20030;-63
2023/08/03 10:57:11;;;;;;;43.50;34.30;;;22.90;99.90;;;;;;4965039;28;20122;-63
2023/08/03 10:59:58;;;;;;;42.20;36.08;;;23.00;99.90;;;;;;4964385;28;20043;-63
2023/08/03 11:02:31;;;;;;;41.60;36.35;;;22.80;99.90;;;;;;4962412;28;20046;-63
2023/08/03 11:04:59;;;;;;;43.78;36.53;;;22.90;99.90;;;;;;4957494;28;20043;-64
2023/08/03 11:07:30;;;;;;;38.97;34.70;;;23.10;99.90;;;;;;4965300;28;20039;-62
2023/08/03 11:09:56;;;;;;;42.53;35.95;;;22.70;99.90;;;;;;4965455;28;20107;-62
2023/08/03 11:12:23;;;;;;;40.70;36.38;;;22.60;99.90;;;;;;4963175;28;20093;-63
2023/08/03 11:14:50;;;;;;;40.78;36.58;;;23.00;99.90;;;;;;4965447;28;20058;-63
2023/08/03 11:17:19;;;;;;;42.90;38.40;;;22.50;99.90;;;;;;4962113;28;20123;-62
2023/08/03 11:19:44;;;;;;;43.60;38.88;;;22.40;99.90;;;;;;4961130;28;20073;-62
2023/08/03 11:22:11;;;;;;;47.47;40.35;;;22.00;99.90;;;;;;4965498;28;20038;-62
2023/08/03 11:24:37;;;;;;;47.50;41.22;;;22.20;99.90;;;;;;4961608;28;20419;-62
2023/08/03 11:27:04;;;;;;;49.03;41.38;;;22.10;99.90;;;;;;4966044;28;20073;-63
2023/08/03 11:29:33;;;;;;;50.00;40.40;;;22.30;99.90;;;;;;4963623;28;20035;-62
2023/08/03 11:31:58;;;;;;;47.97;38.40;;;22.00;99.90;;;;;;4969380;28;20130;-65
2023/08/03 11:34:24;;;;;;;49.22;39.47;;;21.70;99.90;;;;;;4967671;28;20118;-62
2023/08/03 11:36:51;;;;;;;51.35;40.65;;;22.30;99.90;;;;;;4970398;28;20055;-62
2023/08/03 11:39:20;;;;;;;47.42;41.05;;;21.70;99.90;;;;;;4986787;28;20051;-63
2023/08/03 11:41:47;;;;;;;48.08;39.80;;;22.00;99.90;;;;;;4968508;28;20074;-62
2023/08/03 11:44:13;;;;;;;49.42;40.00;;;22.00;99.90;;;;;;4968212;28;20053;-63
2023/08/03 11:46:40;;;;;;;46.17;38.38;;;22.00;99.90;;;;;;4967585;28;20046;-62
2023/08/03 11:49:05;;;;;;;45.72;38.67;;;22.10;99.90;;;;;;4968832;28;20051;-62
2023/08/03 11:51:36;;;;;;;51.40;38.97;;;22.00;99.90;;;;;;4971924;28;20047;-64
2023/08/03 11:54:12;;;;;;;44.25;38.40;;;22.20;99.90;;;;;;4969412;28;20050;-63
2023/08/03 11:56:39;;;;;;;45.53;38.25;;;22.30;99.90;;;;;;4965823;28;20122;-63
2023/08/03 11:59:08;;;;;;;46.15;37.58;;;22.30;99.90;;;;;;4969382;28;20031;-62
2023/08/03 12:01:45;;;;;;;46.08;36.17;;;22.40;99.90;;;;;;4967308;28;20051;-62
2023/08/03 12:04:11;;;;;;;50.35;37.58;;;22.30;99.90;;;;;;4968039;28;20039;-63
2023/08/03 12:06:51;;;;;;;49.25;40.00;;;22.50;99.90;;;;;;4964455;28;20043;-63
2023/08/03 12:09:18;;;;;;;46.58;36.30;;;22.40;99.90;;;;;;4965835;28;20082;-62
2023/08/03 12:11:44;;;;;;;45.55;37.63;;;22.70;99.90;;;;;;4970610;28;20039;-62
2023/08/03 12:14:10;;;;;;;49.13;37.75;;;22.70;99.90;;;;;;4969815;28;20444;-62
2023/08/03 12:16:39;;;;;;;50.10;37.60;;;22.80;99.90;;;;;;4967442;28;20043;-63
2023/08/03 12:19:08;;;;;;;46.78;37.03;;;22.90;99.90;;;;;;4969146;28;20073;-63
2023/08/03 12:21:37;;;;;;;45.67;35.97;;;22.50;99.90;;;;;;4968024;28;20073;-62
2023/08/03 12:24:04;;;;;;;48.95;38.00;;;22.50;99.90;;;;;;4970395;28;20046;-62
2023/08/03 12:26:30;;;;;;;49.13;35.55;;;22.50;99.90;;;;;;4967500;28;20046;-62
2023/08/03 12:28:56;;;;;;;48.53;34.33;;;22.40;99.90;;;;;;4963557;28;20094;-63